Main page
Satellite images 10-day forecastsClimateMarine weather Cyclones Lightning AirportsFAQ Newsletter About
Weather : Europe Africa North America South America Asia Australia-Oceania Others
Languages Contact

,

latitude: , longitude: , elevation: m


METAR: OTBD 270330Z 29010KT 240V320 8000 NSC 17/10 Q1016 NOSIG
TAF: OTBD 262303Z 2700/2806 34015KT 8000 NSC TEMPO 2704/2714 35015G25KT 5000 DU PROB30 TEMPO 2706/2713 2500 BLDU

Time: 04:58 (03:58 UTC)

Current weather observation

The report was made 28 minutes ago, at 03:30 UTC
Wind 10 kt from the West/Northwest, varying between West/Southwest and Northwest
Temperature 17°C
Humidity 63%
Pressure 1016 hPa
Visibility: 8000 m

Change units

Forecast

The report was made 4 hours and 55 minutes ago, at 23:03 UTC
Forecast valid from 27 at 00 UTC to 28 at 06 UTC
Wind 15 kt from the North/Northwest
Visibility: 8000 m
Temporary
from 27 at 04 UTC to 27 at 14 UTC
Wind 15 kt from the North with gusts up to 25 kt
Visibility: 5000 m
widespread dust
Probability 30% :
Temporary
from 27 at 06 UTC to 27 at 13 UTC
Visibility: 2500 m
Blowing dust
The information on this site is subject to a disclaimer
Weather : Europe Africa North America South America Asia Australia-Oceania Others
Satellite images 10-day forecastsClimateMarine weather Cyclones Lightning AirportsFAQ Languages Contact Newsletter About